createdAt,value
2017-12-12T00:00:12.807Z,3.15
2017-12-12T00:01:49.766Z,3.10
2017-12-12T00:03:26.539Z,3.37
2017-12-12T00:05:03.362Z,3.65
2017-12-12T00:06:40.187Z,3.81
2017-12-12T00:08:16.728Z,3.87
2017-12-12T00:09:53.475Z,4.00
2017-12-12T00:11:29.877Z,3.97
2017-12-12T00:13:06.571Z,3.98
2017-12-12T00:14:44.441Z,3.96
2017-12-12T00:16:20.865Z,3.94
2017-12-12T00:17:57.549Z,3.98
2017-12-12T00:19:34.285Z,3.81
2017-12-12T00:21:11.015Z,3.89
2017-12-12T00:22:49.331Z,4.11
2017-12-12T00:24:26.933Z,4.06
2017-12-12T00:26:03.557Z,4.09
2017-12-12T00:27:46.927Z,3.92
2017-12-12T00:29:24.414Z,3.88
2017-12-12T00:31:00.958Z,3.98
2017-12-12T00:32:37.948Z,3.90
2017-12-12T00:34:14.781Z,3.99
2017-12-12T00:35:51.306Z,4.12
2017-12-12T00:37:28.125Z,3.97
2017-12-12T00:39:05.128Z,3.96
2017-12-12T00:40:42.373Z,3.95
2017-12-12T00:42:19.385Z,4.06
2017-12-12T00:43:56.917Z,4.11
2017-12-12T00:45:33.508Z,4.12
2017-12-12T00:47:10.807Z,4.15
2017-12-12T00:48:49.654Z,4.15
2017-12-12T00:50:27.175Z,4.18
2017-12-12T00:52:03.674Z,4.11
2017-12-12T00:53:43.365Z,4.14
2017-12-12T00:55:20.412Z,4.08
2017-12-12T00:56:56.850Z,4.20
2017-12-12T00:58:33.897Z,4.37
2017-12-12T01:00:11.314Z,4.36
2017-12-12T01:01:48.832Z,4.23
2017-12-12T01:03:26.483Z,4.16
2017-12-12T01:05:02.965Z,4.13
2017-12-12T01:06:39.426Z,3.95
2017-12-12T01:08:16.472Z,3.84
2017-12-12T01:09:53.090Z,3.80
2017-12-12T01:11:29.822Z,3.79
2017-12-12T01:13:06.619Z,3.84
2017-12-12T01:14:43.248Z,3.85
2017-12-12T01:16:21.129Z,3.69
2017-12-12T01:17:57.854Z,3.68
2017-12-12T01:19:34.486Z,3.82
2017-12-12T01:21:11.235Z,3.79
2017-12-12T01:22:48.880Z,3.93
2017-12-12T01:24:25.908Z,4.00
2017-12-12T01:26:02.837Z,3.94
2017-12-12T01:27:39.457Z,3.94
2017-12-12T01:29:16.627Z,3.91
2017-12-12T01:30:54.207Z,4.00
2017-12-12T01:32:32.056Z,4.06
2017-12-12T01:34:09.933Z,4.02
2017-12-12T01:35:46.735Z,3.78
2017-12-12T01:37:23.316Z,3.62
2017-12-12T01:39:00.911Z,3.68
2017-12-12T01:40:38.400Z,3.80
2017-12-12T01:42:15.190Z,4.00
2017-12-12T01:43:51.940Z,4.00
2017-12-12T01:45:30.676Z,4.04
2017-12-12T01:47:09.354Z,4.08
2017-12-12T01:48:45.977Z,4.11
2017-12-12T01:50:23.378Z,4.11
2017-12-12T01:52:00.125Z,4.17
2017-12-12T01:53:37.325Z,4.11
2017-12-12T01:55:14.565Z,4.11
2017-12-12T01:56:51.750Z,4.04
2017-12-12T01:58:28.776Z,4.03
2017-12-12T02:00:06.750Z,4.05
2017-12-12T02:01:45.736Z,4.09
2017-12-12T02:03:22.716Z,4.09
2017-12-12T02:05:00.756Z,4.15
2017-12-12T02:06:38.516Z,4.07
2017-12-12T02:08:15.515Z,4.11
2017-12-12T02:09:52.135Z,4.17
2017-12-12T02:11:29.104Z,4.28
2017-12-12T02:13:07.298Z,4.32
2017-12-12T02:14:46.110Z,4.18
2017-12-12T02:16:23.486Z,4.01
2017-12-12T02:18:00.182Z,3.93
2017-12-12T02:19:37.017Z,3.95
2017-12-12T02:21:14.691Z,4.06
2017-12-12T02:22:51.463Z,4.12
2017-12-12T02:24:28.184Z,4.12
2017-12-12T02:26:05.303Z,4.14
2017-12-12T02:27:43.181Z,4.15
2017-12-12T02:29:19.898Z,4.20
2017-12-12T02:30:58.981Z,4.27
2017-12-12T02:32:35.743Z,4.31
2017-12-12T02:34:12.997Z,4.31
2017-12-12T02:35:50.130Z,4.33
2017-12-12T02:37:28.047Z,4.35
2017-12-12T02:39:05.585Z,4.47
2017-12-12T02:40:42.424Z,4.45
2017-12-12T02:42:20.803Z,4.45
2017-12-12T02:43:58.502Z,4.41
2017-12-12T02:45:35.148Z,4.46
2017-12-12T02:47:11.772Z,4.60
2017-12-12T02:48:49.915Z,4.74
2017-12-12T02:50:26.697Z,4.91
2017-12-12T02:52:03.965Z,4.89
2017-12-12T02:53:40.738Z,4.81
2017-12-12T02:55:18.911Z,4.70
2017-12-12T02:56:57.077Z,4.57
2017-12-12T02:58:34.734Z,4.51
2017-12-12T03:00:12.863Z,4.56
2017-12-12T03:01:54.783Z,4.55
2017-12-12T03:03:32.543Z,4.43
2017-12-12T03:05:10.477Z,4.38
2017-12-12T03:06:48.481Z,4.25
2017-12-12T03:08:26.867Z,4.33
2017-12-12T03:10:04.180Z,4.40
2017-12-12T03:11:43.413Z,4.46
2017-12-12T03:13:20.502Z,4.48
2017-12-12T03:14:58.463Z,4.45
2017-12-12T03:16:37.277Z,4.47
2017-12-12T03:18:14.333Z,4.55
2017-12-12T03:19:51.642Z,4.67
2017-12-12T03:21:28.503Z,4.81
2017-12-12T03:23:06.065Z,4.76
2017-12-12T03:24:44.932Z,4.77
2017-12-12T03:26:22.895Z,4.68
2017-12-12T03:27:59.436Z,4.52
2017-12-12T03:29:37.199Z,4.50
2017-12-12T03:31:14.613Z,4.43
2017-12-12T03:32:51.486Z,4.47
2017-12-12T03:34:28.385Z,4.52
2017-12-12T03:36:05.363Z,4.55
2017-12-12T03:37:42.651Z,4.70
2017-12-12T03:39:19.504Z,4.83
2017-12-12T03:40:57.292Z,4.98
2017-12-12T03:42:34.562Z,5.07
2017-12-12T03:44:12.145Z,4.97
2017-12-12T03:45:49.387Z,4.90
2017-12-12T03:47:27.012Z,4.73
2017-12-12T03:49:03.497Z,4.66
2017-12-12T03:50:42.922Z,4.78
2017-12-12T03:52:19.423Z,4.94
2017-12-12T03:53:56.109Z,5.01
2017-12-12T03:55:33.059Z,5.05
2017-12-12T03:57:10.901Z,5.01
2017-12-12T03:58:47.456Z,5.02
2017-12-12T04:00:27.386Z,5.13
2017-12-12T04:02:04.266Z,5.31
2017-12-12T04:03:40.918Z,5.32
2017-12-12T04:05:17.404Z,5.31
2017-12-12T04:06:53.924Z,5.23
2017-12-12T04:08:30.331Z,5.15
2017-12-12T04:10:06.794Z,5.16
2017-12-12T04:11:43.349Z,4.96
2017-12-12T04:13:19.797Z,4.70
2017-12-12T04:14:56.621Z,4.50
2017-12-12T04:16:33.635Z,4.48
2017-12-12T04:18:11.234Z,4.46
2017-12-12T04:19:48.630Z,4.39
2017-12-12T04:21:25.316Z,4.30
2017-12-12T04:23:01.945Z,4.47
2017-12-12T04:24:39.223Z,4.50
2017-12-12T04:26:15.746Z,4.57
2017-12-12T04:27:52.232Z,4.44
2017-12-12T04:29:28.782Z,4.46
2017-12-12T04:31:05.340Z,4.41
2017-12-12T04:32:41.866Z,4.40
2017-12-12T04:34:18.369Z,4.46
2017-12-12T04:35:55.341Z,4.51
2017-12-12T04:37:31.871Z,4.45
2017-12-12T04:39:09.154Z,4.47
2017-12-12T04:40:45.620Z,4.51
2017-12-12T04:42:22.516Z,4.44
2017-12-12T04:43:59.041Z,4.31
2017-12-12T04:45:36.264Z,4.30
2017-12-12T04:47:12.590Z,4.33
2017-12-12T04:48:50.484Z,4.39
2017-12-12T04:50:27.893Z,4.37
2017-12-12T04:52:04.409Z,4.37
2017-12-12T04:53:40.969Z,4.49
2017-12-12T04:55:18.247Z,4.60
2017-12-12T04:56:55.206Z,4.61
2017-12-12T04:58:32.476Z,4.61
2017-12-12T05:00:10.732Z,4.65
2017-12-12T05:01:47.741Z,4.74
2017-12-12T05:03:24.706Z,4.77
2017-12-12T05:05:01.497Z,4.67
2017-12-12T05:06:37.919Z,4.65
2017-12-12T05:08:14.748Z,4.77
2017-12-12T05:09:51.323Z,4.83
2017-12-12T05:11:28.333Z,4.60
2017-12-12T05:13:04.873Z,4.60
2017-12-12T05:14:41.560Z,4.67
2017-12-12T05:16:18.096Z,4.68
2017-12-12T05:17:55.417Z,4.76
2017-12-12T05:19:32.679Z,4.84
2017-12-12T05:21:09.211Z,4.90
2017-12-12T05:22:45.786Z,4.81
2017-12-12T05:24:22.323Z,4.69
2017-12-12T05:25:59.266Z,4.85
2017-12-12T05:27:35.936Z,5.02
2017-12-12T05:29:12.557Z,4.97
2017-12-12T05:30:49.542Z,4.82
2017-12-12T05:32:26.142Z,4.96
2017-12-12T05:34:02.893Z,5.01
2017-12-12T05:35:39.359Z,5.01
2017-12-12T05:37:15.862Z,5.13
2017-12-12T05:38:53.189Z,4.99
2017-12-12T05:40:29.695Z,4.94
2017-12-12T05:42:06.265Z,4.89
2017-12-12T05:43:42.817Z,4.92
2017-12-12T05:45:20.125Z,5.08
2017-12-12T05:46:56.943Z,5.06
2017-12-12T05:48:33.342Z,5.03
2017-12-12T05:50:10.936Z,5.02
2017-12-12T05:51:48.699Z,4.89
2017-12-12T05:53:25.279Z,4.72
2017-12-12T05:55:01.833Z,4.93
2017-12-12T05:56:38.554Z,5.18
2017-12-12T05:58:15.145Z,5.36
2017-12-12T05:59:51.777Z,5.47
2017-12-12T06:01:28.953Z,5.27
2017-12-12T06:03:05.589Z,5.37
2017-12-12T06:04:42.532Z,5.47
2017-12-12T06:06:19.836Z,5.49
2017-12-12T06:07:56.282Z,5.63
2017-12-12T06:09:32.827Z,5.68
2017-12-12T06:11:10.945Z,5.04
2017-12-12T06:12:49.019Z,4.91
2017-12-12T06:14:25.615Z,5.04
2017-12-12T06:17:49.790Z,5.31
2017-12-12T06:19:26.501Z,5.35
2017-12-12T06:21:03.131Z,5.59
2017-12-12T06:22:40.094Z,5.44
2017-12-12T06:24:17.043Z,5.44
2017-12-12T06:25:53.508Z,5.32
2017-12-12T06:27:30.778Z,5.41
2017-12-12T06:29:07.760Z,5.49
2017-12-12T06:30:44.701Z,5.61
2017-12-12T06:32:21.171Z,5.50
2017-12-12T06:33:57.728Z,5.57
2017-12-12T06:35:34.288Z,5.76
2017-12-12T06:37:11.690Z,5.72
2017-12-12T06:38:48.186Z,5.47
2017-12-12T06:40:24.680Z,5.21
2017-12-12T06:42:01.987Z,4.97
2017-12-12T06:43:39.166Z,5.10
2017-12-12T06:45:18.502Z,5.40
2017-12-12T06:46:55.288Z,5.40
2017-12-12T06:48:31.990Z,5.43
2017-12-12T06:50:09.852Z,5.46
2017-12-12T06:51:46.630Z,5.44
2017-12-12T06:53:23.179Z,5.45
2017-12-12T06:54:59.857Z,5.43
2017-12-12T06:56:36.564Z,5.25
2017-12-12T06:58:13.372Z,5.21
2017-12-12T06:59:50.730Z,5.15
2017-12-12T07:01:27.537Z,5.24
2017-12-12T07:03:05.227Z,5.22
2017-12-12T07:04:41.734Z,5.12
2017-12-12T07:06:18.242Z,5.12
2017-12-12T07:07:54.864Z,5.09
2017-12-12T07:09:32.865Z,5.01
2017-12-12T07:11:09.834Z,5.22
2017-12-12T07:12:47.421Z,5.28
2017-12-12T07:14:24.413Z,5.14
2017-12-12T07:16:02.123Z,4.95
2017-12-12T07:17:38.728Z,5.09
2017-12-12T07:19:15.329Z,5.06
2017-12-12T07:20:52.590Z,4.92
2017-12-12T07:22:29.530Z,5.07
2017-12-12T07:24:06.299Z,4.92
2017-12-12T07:25:43.547Z,5.02
2017-12-12T07:27:19.947Z,5.38
2017-12-12T07:28:56.826Z,5.39
2017-12-12T07:30:34.253Z,5.42
2017-12-12T07:32:11.007Z,5.38
2017-12-12T07:33:47.604Z,5.33
2017-12-12T07:35:24.475Z,5.54
2017-12-12T07:37:00.935Z,5.40
2017-12-12T07:38:37.488Z,5.32
2017-12-12T07:40:14.022Z,5.41
2017-12-12T07:41:51.000Z,5.77
2017-12-12T07:43:27.445Z,5.85
2017-12-12T07:45:05.749Z,5.68
2017-12-12T07:46:43.190Z,5.21
2017-12-12T07:48:19.930Z,5.39
2017-12-12T07:49:56.397Z,5.46
2017-12-12T07:51:32.930Z,5.25
2017-12-12T07:53:10.093Z,5.43
2017-12-12T07:54:47.702Z,5.48
2017-12-12T07:56:24.139Z,5.46
2017-12-12T07:58:01.332Z,5.31
2017-12-12T07:59:37.963Z,5.53
2017-12-12T08:01:14.985Z,5.47
2017-12-12T08:02:51.527Z,5.45
2017-12-12T08:04:27.922Z,5.53
2017-12-12T08:06:04.330Z,5.52
2017-12-12T08:07:41.052Z,5.51
2017-12-12T08:09:17.653Z,5.44
2017-12-12T08:10:54.236Z,5.50
2017-12-12T08:12:30.648Z,5.60
2017-12-12T08:14:08.393Z,5.58
2017-12-12T08:15:44.939Z,5.72
2017-12-12T08:17:21.394Z,5.80
2017-12-12T08:18:58.695Z,5.71
2017-12-12T08:20:35.850Z,5.57
2017-12-12T08:22:12.343Z,5.48
2017-12-12T08:23:49.042Z,5.59
2017-12-12T08:26:55.290Z,5.23
2017-12-12T08:28:31.753Z,5.04
2017-12-12T08:30:08.241Z,4.77
2017-12-12T08:31:44.860Z,4.81
2017-12-12T08:33:22.594Z,4.98
2017-12-12T08:34:59.061Z,5.09
2017-12-12T08:36:35.511Z,5.12
2017-12-12T08:38:12.513Z,5.09
2017-12-12T08:39:49.928Z,5.21
2017-12-12T08:41:27.146Z,5.38
2017-12-12T08:43:03.620Z,5.23
2017-12-12T08:44:40.028Z,5.04
2017-12-12T08:46:17.060Z,5.30
2017-12-12T08:47:53.766Z,5.50
2017-12-12T08:49:30.243Z,5.65
2017-12-12T08:51:07.251Z,5.81
2017-12-12T08:52:44.752Z,5.85
2017-12-12T08:54:21.361Z,5.82
2017-12-12T08:55:57.692Z,5.66
2017-12-12T08:57:35.153Z,5.71
2017-12-12T08:59:11.903Z,5.74
2017-12-12T09:00:48.606Z,5.75
2017-12-12T09:02:25.824Z,5.87
2017-12-12T09:04:02.343Z,5.94
2017-12-12T09:05:38.845Z,5.80
2017-12-12T09:07:15.992Z,5.88
2017-12-12T09:08:52.534Z,5.89
2017-12-12T09:10:29.026Z,5.67
2017-12-12T09:12:05.757Z,5.26
2017-12-12T09:13:42.262Z,5.44
2017-12-12T09:15:21.731Z,5.49
2017-12-12T09:16:58.178Z,5.72
2017-12-12T09:18:36.093Z,5.92
2017-12-12T09:20:13.487Z,5.78
2017-12-12T09:21:50.789Z,5.66
2017-12-12T09:23:28.247Z,5.75
2017-12-12T09:25:06.814Z,5.89
2017-12-12T09:26:49.805Z,5.93
2017-12-12T09:28:26.318Z,5.90
2017-12-12T09:30:02.977Z,5.89
2017-12-12T09:31:40.367Z,6.05
2017-12-12T09:33:16.950Z,6.07
2017-12-12T09:34:53.352Z,6.02
2017-12-12T09:36:30.652Z,5.96
2017-12-12T09:38:08.228Z,5.96
2017-12-12T09:39:45.500Z,5.93
2017-12-12T09:41:22.093Z,5.83
2017-12-12T09:42:58.753Z,5.79
2017-12-12T09:44:35.719Z,5.79
2017-12-12T09:46:12.274Z,5.65
2017-12-12T09:47:48.994Z,5.77
2017-12-12T09:49:25.886Z,5.83
2017-12-12T09:51:02.863Z,5.70
2017-12-12T09:52:39.335Z,5.53
2017-12-12T09:54:15.939Z,5.27
2017-12-12T09:55:52.437Z,5.17
2017-12-12T09:57:29.413Z,5.25
2017-12-12T09:59:05.868Z,5.66
2017-12-12T10:00:44.501Z,5.99
2017-12-12T10:02:21.456Z,6.20
2017-12-12T10:03:58.395Z,6.10
2017-12-12T10:05:34.927Z,6.12
2017-12-12T10:07:13.086Z,6.02
2017-12-12T10:08:49.569Z,6.18
2017-12-12T10:10:26.788Z,6.41
2017-12-12T10:12:03.995Z,6.26
2017-12-12T10:13:40.383Z,6.57
2017-12-12T10:15:20.787Z,6.33
2017-12-12T10:17:01.178Z,6.59
2017-12-12T10:18:37.758Z,6.65
2017-12-12T10:20:14.153Z,6.59
2017-12-12T10:21:50.696Z,6.54
2017-12-12T10:23:27.456Z,6.38
2017-12-12T10:26:34.661Z,6.43
2017-12-12T10:28:11.513Z,6.54
2017-12-12T10:29:48.269Z,6.56
2017-12-12T10:31:25.278Z,6.68
2017-12-12T10:33:02.624Z,6.58
2017-12-12T10:34:39.174Z,6.64
2017-12-12T10:36:16.117Z,6.32
2017-12-12T10:37:52.672Z,6.04
2017-12-12T10:39:30.213Z,6.24
2017-12-12T10:41:07.014Z,6.23
2017-12-12T10:44:23.477Z,6.52
2017-12-12T10:46:00.923Z,6.82
2017-12-12T10:47:37.934Z,6.69
2017-12-12T10:49:15.020Z,6.47
2017-12-12T10:50:51.705Z,6.31
2017-12-12T10:52:34.785Z,6.16
2017-12-12T10:54:11.570Z,6.19
2017-12-12T10:55:48.697Z,6.14
2017-12-12T10:57:25.452Z,6.07
2017-12-12T10:59:02.060Z,5.93
2017-12-12T11:00:38.865Z,6.10
2017-12-12T11:02:16.585Z,6.05
2017-12-12T11:03:53.395Z,6.06
2017-12-12T11:05:30.183Z,6.11
2017-12-12T11:07:06.710Z,6.17
2017-12-12T11:08:43.521Z,6.10
2017-12-12T11:10:20.050Z,6.12
2017-12-12T11:11:56.780Z,6.23
2017-12-12T11:13:33.445Z,6.29
2017-12-12T11:15:10.347Z,6.29
2017-12-12T11:16:47.647Z,6.43
2017-12-12T11:18:24.908Z,6.43
2017-12-12T11:20:01.416Z,6.17
2017-12-12T11:21:39.927Z,5.77
2017-12-12T11:23:16.772Z,6.11
2017-12-12T11:24:53.348Z,6.22
2017-12-12T11:26:30.092Z,6.34
2017-12-12T11:28:07.560Z,5.98
2017-12-12T11:29:44.561Z,5.62
2017-12-12T11:31:21.793Z,5.91
2017-12-12T11:32:58.369Z,6.03
2017-12-12T11:34:35.560Z,6.03
2017-12-12T11:36:12.962Z,6.23
2017-12-12T11:37:49.369Z,6.30
2017-12-12T11:39:26.843Z,6.34
2017-12-12T11:41:03.793Z,6.30
2017-12-12T11:42:40.404Z,6.28
2017-12-12T11:44:16.851Z,6.40
2017-12-12T11:45:53.289Z,6.12
2017-12-12T11:47:30.132Z,5.99
2017-12-12T11:49:07.751Z,5.96
2017-12-12T11:50:44.297Z,5.97
2017-12-12T11:52:20.924Z,5.78
2017-12-12T11:53:58.429Z,5.69
2017-12-12T11:55:36.169Z,5.81
2017-12-12T11:57:13.303Z,6.07
2017-12-12T11:58:49.966Z,6.21
2017-12-12T12:00:29.555Z,6.30
2017-12-12T12:02:06.370Z,6.37
2017-12-12T12:03:43.048Z,6.47
2017-12-12T12:05:19.942Z,6.56
2017-12-12T12:06:56.964Z,6.34
2017-12-12T12:08:34.527Z,6.17
2017-12-12T12:10:11.953Z,6.11
2017-12-12T12:11:48.637Z,6.18
2017-12-12T12:13:25.589Z,6.17
2017-12-12T12:15:02.472Z,6.16
2017-12-12T12:16:39.306Z,6.33
2017-12-12T12:18:16.019Z,6.35
2017-12-12T12:19:53.217Z,6.26
2017-12-12T12:21:31.567Z,6.29
2017-12-12T12:23:09.363Z,6.60
2017-12-12T12:24:47.629Z,6.51
2017-12-12T12:26:24.796Z,6.48
2017-12-12T12:28:01.354Z,6.08
2017-12-12T12:29:38.724Z,6.12
2017-12-12T12:31:15.760Z,6.43
2017-12-12T12:32:52.686Z,6.55
2017-12-12T12:34:29.439Z,6.65
2017-12-12T12:36:06.156Z,6.71
2017-12-12T12:37:43.735Z,6.66
2017-12-12T12:39:20.393Z,6.77
2017-12-12T12:40:56.978Z,6.78
2017-12-12T12:42:34.440Z,6.90
2017-12-12T12:44:13.496Z,6.52
2017-12-12T12:45:50.322Z,6.80
2017-12-12T12:47:27.683Z,6.77
2017-12-12T12:49:05.992Z,7.00
2017-12-12T12:50:42.949Z,7.08
2017-12-12T12:52:20.753Z,7.18
2017-12-12T12:53:57.582Z,7.10
2017-12-12T12:55:34.268Z,6.90
2017-12-12T12:57:11.420Z,7.04
2017-12-12T12:58:48.649Z,7.21
2017-12-12T13:00:26.965Z,7.10
2017-12-12T13:02:04.771Z,6.73
2017-12-12T13:03:44.024Z,6.70
2017-12-12T13:05:21.257Z,6.79
2017-12-12T13:06:57.717Z,6.62
2017-12-12T13:08:34.172Z,6.48
2017-12-12T13:10:12.153Z,6.52
2017-12-12T13:11:48.644Z,6.54
2017-12-12T13:13:25.857Z,6.73
2017-12-12T13:15:03.075Z,6.86
2017-12-12T13:16:40.338Z,6.68
2017-12-12T13:18:17.645Z,6.84
2017-12-12T13:19:54.062Z,6.94
2017-12-12T13:21:30.693Z,7.22
2017-12-12T13:23:07.422Z,7.35
2017-12-12T13:24:44.564Z,7.29
2017-12-12T13:26:21.100Z,7.30
2017-12-12T13:27:58.726Z,7.34
2017-12-12T13:29:35.215Z,7.44
2017-12-12T13:31:11.702Z,7.29
2017-12-12T13:32:48.647Z,7.24
2017-12-12T13:34:27.988Z,7.26
2017-12-12T13:36:07.346Z,7.30
2017-12-12T13:37:44.226Z,7.43
2017-12-12T13:39:21.016Z,7.37
2017-12-12T13:40:57.676Z,7.28
2017-12-12T13:42:37.161Z,7.01
2017-12-12T13:44:14.632Z,6.91
2017-12-12T13:45:51.630Z,6.95
2017-12-12T13:47:28.478Z,7.02
2017-12-12T13:49:05.518Z,6.94
2017-12-12T13:50:46.374Z,6.95
2017-12-12T13:52:23.971Z,7.04
2017-12-12T13:54:01.387Z,7.07
2017-12-12T13:55:39.366Z,7.17
2017-12-12T13:57:15.906Z,7.26
2017-12-12T13:58:52.854Z,7.20
2017-12-12T14:00:29.814Z,7.13
2017-12-12T14:02:08.000Z,7.02
2017-12-12T14:03:45.606Z,7.05
2017-12-12T14:07:00.526Z,7.26
2017-12-12T14:08:37.465Z,7.21
2017-12-12T14:10:15.770Z,7.06
2017-12-12T14:11:53.381Z,7.16
2017-12-12T14:13:32.664Z,7.23
2017-12-12T14:15:11.445Z,6.89
2017-12-12T14:16:48.815Z,6.95
2017-12-12T14:18:25.305Z,6.89
2017-12-12T14:20:09.885Z,6.91
2017-12-12T14:21:47.940Z,6.89
2017-12-12T14:26:31.152Z,7.09
2017-12-12T14:28:08.015Z,7.16
2017-12-12T14:29:44.450Z,7.02
2017-12-12T14:31:20.927Z,7.26
2017-12-12T14:33:02.275Z,7.10
2017-12-12T14:34:39.362Z,7.19
2017-12-12T14:36:16.291Z,7.18
2017-12-12T14:37:52.826Z,7.04
2017-12-12T14:39:31.507Z,7.19
2017-12-12T14:41:10.062Z,7.22
2017-12-12T14:42:48.936Z,7.18
2017-12-12T14:44:26.408Z,7.07
2017-12-12T14:46:03.613Z,7.09
2017-12-12T14:47:40.565Z,6.89
2017-12-12T14:49:17.574Z,6.97
2017-12-12T14:50:54.060Z,7.01
2017-12-12T14:52:32.236Z,6.95
2017-12-12T14:54:10.624Z,7.00
2017-12-12T14:55:48.874Z,6.79
2017-12-12T14:57:26.161Z,6.66
2017-12-12T14:59:05.090Z,6.43
2017-12-12T15:00:43.176Z,5.96
2017-12-12T15:02:19.945Z,6.15
2017-12-12T15:03:58.406Z,6.36
2017-12-12T15:05:35.770Z,6.43
2017-12-12T15:07:13.948Z,6.27
2017-12-12T15:08:51.354Z,6.16
2017-12-12T15:10:27.885Z,6.31
2017-12-12T15:12:04.854Z,6.35
2017-12-12T15:13:49.545Z,6.38
2017-12-12T15:15:30.719Z,6.44
2017-12-12T15:17:09.679Z,6.43
2017-12-12T15:18:57.117Z,6.47
2017-12-12T15:22:54.783Z,6.58
2017-12-12T15:24:42.551Z,6.37
2017-12-12T15:26:30.622Z,6.29
2017-12-12T15:28:50.920Z,5.87
2017-12-12T15:32:32.349Z,6.40
2017-12-12T15:39:29.951Z,6.09
2017-12-12T15:41:06.523Z,6.24
2017-12-12T15:42:43.141Z,6.08
2017-12-12T15:44:19.606Z,6.23
2017-12-12T15:45:56.965Z,6.27
2017-12-12T15:47:33.832Z,6.03
2017-12-12T15:49:10.395Z,6.20
2017-12-12T15:50:47.964Z,6.39
2017-12-12T15:52:25.116Z,6.46
2017-12-12T15:54:02.039Z,6.63
2017-12-12T15:55:39.058Z,6.86
2017-12-12T15:57:15.666Z,6.95
2017-12-12T15:58:53.038Z,6.99
2017-12-12T16:00:29.846Z,6.83
2017-12-12T16:02:07.309Z,6.49
2017-12-12T16:03:44.880Z,6.72
2017-12-12T16:05:21.566Z,6.70
2017-12-12T16:06:58.973Z,6.62
2017-12-12T16:08:36.232Z,6.41
2017-12-12T16:10:16.264Z,6.61
2017-12-12T16:11:53.408Z,6.78
2017-12-12T16:13:31.437Z,6.86
2017-12-12T16:15:09.686Z,6.94
2017-12-12T16:16:47.261Z,6.91
2017-12-12T16:18:24.484Z,6.89
2017-12-12T16:20:01.637Z,6.95
2017-12-12T16:21:38.201Z,7.10
2017-12-12T16:23:21.025Z,7.18
2017-12-12T16:24:59.910Z,7.23
2017-12-12T16:26:37.227Z,7.21
2017-12-12T16:28:15.834Z,6.75
2017-12-12T16:29:57.285Z,6.56
2017-12-12T16:31:34.231Z,6.42
2017-12-12T16:33:26.606Z,6.35
2017-12-12T16:35:04.833Z,6.12
2017-12-12T16:36:47.110Z,6.29
2017-12-12T16:38:24.356Z,6.15
2017-12-12T16:40:12.406Z,6.25
2017-12-12T16:41:51.699Z,6.32
2017-12-12T16:43:28.720Z,6.14
2017-12-12T16:45:06.767Z,5.98
2017-12-12T16:46:44.475Z,6.26
2017-12-12T16:48:22.302Z,6.22
2017-12-12T16:49:59.357Z,6.22
2017-12-12T16:51:38.115Z,6.31
2017-12-12T16:53:18.733Z,6.42
2017-12-12T16:54:57.086Z,6.61
2017-12-12T16:56:33.498Z,6.67
2017-12-12T16:58:11.487Z,6.69
2017-12-12T16:59:50.043Z,6.75
2017-12-12T17:01:26.571Z,6.89
2017-12-12T17:03:03.821Z,6.91
2017-12-12T17:04:41.056Z,6.74
2017-12-12T17:06:17.939Z,6.75
2017-12-12T17:07:55.452Z,6.92
2017-12-12T17:09:52.755Z,6.89
2017-12-12T17:11:30.052Z,6.71
2017-12-12T17:13:06.647Z,6.88
2017-12-12T17:14:44.552Z,6.90
2017-12-12T17:16:23.147Z,6.72
2017-12-12T17:18:00.395Z,7.00
2017-12-12T17:19:36.998Z,6.96
2017-12-12T17:21:14.306Z,6.46
2017-12-12T17:22:51.690Z,6.47
2017-12-12T17:24:28.881Z,6.90
2017-12-12T17:26:07.108Z,6.93
2017-12-12T17:27:43.820Z,7.05
2017-12-12T17:29:20.778Z,7.35
2017-12-12T17:30:57.610Z,7.17
2017-12-12T17:32:34.250Z,6.91
2017-12-12T17:34:11.783Z,7.21
2017-12-12T17:35:48.611Z,7.33
2017-12-12T17:37:25.064Z,7.16
2017-12-12T17:39:01.611Z,7.44
2017-12-12T17:40:39.814Z,7.66
2017-12-12T17:42:16.539Z,7.58
2017-12-12T17:43:53.610Z,7.55
2017-12-12T17:45:30.361Z,7.25
2017-12-12T17:47:08.313Z,6.99
2017-12-12T17:48:44.819Z,7.26
2017-12-12T17:50:21.458Z,7.38
2017-12-12T17:51:59.122Z,7.44
2017-12-12T17:53:36.093Z,7.53
2017-12-12T17:55:13.460Z,7.49
2017-12-12T17:56:50.126Z,7.44
2017-12-12T17:58:27.955Z,7.44
2017-12-12T18:00:09.466Z,7.33
2017-12-12T18:01:46.555Z,7.50
2017-12-12T18:03:23.250Z,7.60
2017-12-12T18:04:59.934Z,7.53
2017-12-12T18:06:37.017Z,7.44
2017-12-12T18:08:15.872Z,7.14
2017-12-12T18:09:53.359Z,7.01
2017-12-12T18:11:30.579Z,7.15
2017-12-12T18:13:08.079Z,7.42
2017-12-12T18:14:44.732Z,7.32
2017-12-12T18:16:21.842Z,7.35
2017-12-12T18:17:59.277Z,6.96
2017-12-12T18:19:36.258Z,7.04
2017-12-12T18:21:12.957Z,7.21
2017-12-12T18:22:49.913Z,7.04
2017-12-12T18:24:27.107Z,7.03
2017-12-12T18:26:04.536Z,7.15
2017-12-12T18:27:40.981Z,7.14
2017-12-12T18:29:18.834Z,6.86
2017-12-12T18:30:58.766Z,6.92
2017-12-12T18:32:37.329Z,6.77
2017-12-12T18:34:14.063Z,6.58
2017-12-12T18:35:52.298Z,6.51
2017-12-12T18:37:30.254Z,6.82
2017-12-12T18:39:17.184Z,6.97
2017-12-12T18:40:55.857Z,7.10
2017-12-12T18:42:33.997Z,7.26
2017-12-12T18:44:18.633Z,7.28
2017-12-12T18:45:56.915Z,7.31
2017-12-12T18:47:36.750Z,7.32
2017-12-12T18:49:14.197Z,7.23
2017-12-12T18:50:50.846Z,7.32
2017-12-12T18:52:28.340Z,7.25
2017-12-12T18:54:05.443Z,7.26
2017-12-12T18:55:42.009Z,7.24
2017-12-12T18:57:19.154Z,7.12
2017-12-12T18:58:57.035Z,7.10
2017-12-12T19:00:34.506Z,7.00
2017-12-12T19:02:12.262Z,7.15
2017-12-12T19:03:50.740Z,7.29
2017-12-12T19:05:28.438Z,7.23
2017-12-12T19:07:05.678Z,7.31
2017-12-12T19:08:42.832Z,7.16
2017-12-12T19:10:19.453Z,7.14
2017-12-12T19:11:56.989Z,7.11
2017-12-12T19:13:35.352Z,7.29
2017-12-12T19:15:11.983Z,7.36
2017-12-12T19:16:50.832Z,7.11
2017-12-12T19:18:29.641Z,6.32
2017-12-12T19:20:06.335Z,6.59
2017-12-12T19:21:44.817Z,6.59
2017-12-12T19:24:57.717Z,6.98
2017-12-12T19:26:34.514Z,6.70
2017-12-12T19:28:11.359Z,6.29
2017-12-12T19:29:49.946Z,6.42
2017-12-12T19:31:29.640Z,6.84
2017-12-12T19:33:06.559Z,7.13
2017-12-12T19:34:44.198Z,7.24
2017-12-12T19:36:21.010Z,7.16
2017-12-12T19:37:58.189Z,7.17
2017-12-12T19:39:34.872Z,7.27
2017-12-12T19:41:12.385Z,7.04
2017-12-12T19:42:50.062Z,7.24
2017-12-12T19:44:27.328Z,6.75
2017-12-12T19:46:03.959Z,6.78
2017-12-12T19:47:40.838Z,7.00
2017-12-12T19:49:17.678Z,7.23
2017-12-12T19:50:55.053Z,7.19
2017-12-12T19:52:32.883Z,6.82
2017-12-12T19:54:17.188Z,6.68
2017-12-12T19:55:54.080Z,7.15
2017-12-12T19:57:31.776Z,7.19
2017-12-12T19:59:09.688Z,7.21
2017-12-12T20:00:47.005Z,7.36
2017-12-12T20:02:23.681Z,7.57
2017-12-12T20:04:01.271Z,7.40
2017-12-12T20:05:37.855Z,7.42
2017-12-12T20:07:14.322Z,7.69
2017-12-12T20:08:51.126Z,7.66
2017-12-12T20:10:28.464Z,7.39
2017-12-12T20:12:06.103Z,7.44
2017-12-12T20:13:42.710Z,7.33
2017-12-12T20:15:19.763Z,7.74
2017-12-12T20:16:58.075Z,8.14
2017-12-12T20:18:35.722Z,7.81
2017-12-12T20:20:12.374Z,8.08
2017-12-12T20:21:49.301Z,8.06
2017-12-12T20:23:26.312Z,8.09
2017-12-12T20:25:03.993Z,8.21
2017-12-12T20:26:40.576Z,8.32
2017-12-12T20:28:17.370Z,8.39
2017-12-12T20:29:55.925Z,8.47
2017-12-12T20:31:33.117Z,8.75
2017-12-12T20:33:10.016Z,8.86
2017-12-12T20:34:47.395Z,8.95
2017-12-12T20:36:24.320Z,8.97
2017-12-12T20:38:03.647Z,9.06
2017-12-12T20:39:40.768Z,9.07
2017-12-12T20:41:17.685Z,8.97
2017-12-12T20:42:57.103Z,8.96
2017-12-12T20:44:34.434Z,8.89
2017-12-12T20:46:12.440Z,8.68
2017-12-12T20:47:50.112Z,8.45
2017-12-12T20:49:29.272Z,8.22
2017-12-12T20:51:08.247Z,8.11
2017-12-12T20:52:47.726Z,8.11
2017-12-12T20:54:25.137Z,8.09
2017-12-12T20:56:01.750Z,8.11
2017-12-12T20:57:47.219Z,7.97
2017-12-12T20:59:24.703Z,8.10
2017-12-12T21:01:01.902Z,8.07
2017-12-12T21:02:38.956Z,8.04
2017-12-12T21:04:16.339Z,8.01
2017-12-12T21:05:53.189Z,8.00
2017-12-12T21:07:35.072Z,7.97
2017-12-12T21:09:12.478Z,7.89
2017-12-12T21:10:49.009Z,7.72
2017-12-12T21:12:25.820Z,7.80
2017-12-12T21:14:02.820Z,7.85
2017-12-12T21:15:39.620Z,7.92
2017-12-12T21:17:16.233Z,7.95
2017-12-12T21:18:54.455Z,8.08
2017-12-12T21:20:36.220Z,7.97
2017-12-12T21:22:15.662Z,7.94
2017-12-12T21:23:53.233Z,7.84
2017-12-12T21:25:30.943Z,7.98
2017-12-12T21:27:10.516Z,8.03
2017-12-12T21:28:46.934Z,8.06
2017-12-12T21:30:25.546Z,8.01
2017-12-12T21:32:02.180Z,7.88
2017-12-12T21:33:41.280Z,7.69
2017-12-12T21:35:19.002Z,7.64
2017-12-12T21:36:58.862Z,7.63
2017-12-12T21:38:36.243Z,7.65
2017-12-12T21:40:14.557Z,7.65
2017-12-12T21:41:51.108Z,7.72
2017-12-12T21:44:58.598Z,7.74
2017-12-12T21:46:58.100Z,7.58
2017-12-12T21:48:43.762Z,7.59
2017-12-12T21:50:30.679Z,7.56
2017-12-12T21:52:11.185Z,7.55
2017-12-12T21:53:49.853Z,7.52
2017-12-12T21:55:29.975Z,7.28
2017-12-12T21:57:07.845Z,7.15
2017-12-12T21:58:45.279Z,7.42
2017-12-12T22:00:27.735Z,7.46
2017-12-12T22:02:05.688Z,7.72